Time;durP1;ratioP1;P1;durP2;ratioP2;P2;SDS_P1;SDS_P2;PMS_P1;PMS_P2;Temp;Humidity;BMP_temperature;BMP_pressure;BME280_temperature;BME280_humidity;BME280_pressure;Samples;Min_cycle;Max_cycle;Signal;HPM_P1;HPM_P2
2021/07/11 00:02:09;;;;;;;17.37;15.57;;;;;;;;;;5072608;28;20448;-69
2021/07/11 00:04:38;;;;;;;16.43;14.73;;;;;;;;;;5073002;28;20536;-70
2021/07/11 00:07:05;;;;;;;15.77;14.27;;;;;;;;;;5072839;28;20532;-69
2021/07/11 00:09:32;;;;;;;17.10;15.37;;;;;;;;;;5073383;28;20472;-69
2021/07/11 00:12:00;;;;;;;16.47;14.97;;;;;;;;;;5072488;28;20445;-69
2021/07/11 00:14:27;;;;;;;17.70;16.00;;;;;;;;;;5072499;28;20930;-69
2021/07/11 00:16:54;;;;;;;16.60;15.00;;;;;;;;;;5072464;28;20875;-69
2021/07/11 00:19:21;;;;;;;16.87;15.37;;;;;;;;;;5072434;28;20489;-69
2021/07/11 00:21:50;;;;;;;17.37;15.57;;;;;;;;;;5072731;28;20539;-69
2021/07/11 00:24:17;;;;;;;16.63;14.93;;;;;;;;;;5072630;28;20480;-69
2021/07/11 00:26:44;;;;;;;17.33;15.57;;;;;;;;;;5072616;28;20484;-69
2021/07/11 00:29:12;;;;;;;17.80;16.00;;;;;;;;;;5083100;28;20471;-69
2021/07/11 00:31:39;;;;;;;17.53;15.50;;;;;;;;;;5093180;28;20802;-69
2021/07/11 00:34:06;;;;;;;17.57;15.93;;;;;;;;;;5092988;28;20524;-70
2021/07/11 00:36:33;;;;;;;17.67;15.87;;;;;;;;;;5092499;28;20461;-69
2021/07/11 00:39:02;;;;;;;18.27;16.43;;;;;;;;;;5092794;28;20527;-69
2021/07/11 00:41:29;;;;;;;17.93;16.20;;;;;;;;;;5096227;28;20530;-69
2021/07/11 00:43:56;;;;;;;19.50;17.60;;;;;;;;;;5096605;28;20514;-69
2021/07/11 00:46:23;;;;;;;18.30;16.50;;;;;;;;;;5095668;28;20450;-69
2021/07/11 00:48:51;;;;;;;17.70;16.07;;;;;;;;;;5076631;28;20481;-69
2021/07/11 00:51:18;;;;;;;18.13;16.27;;;;;;;;;;5075777;28;20947;-69
2021/07/11 00:53:51;;;;;;;19.10;17.10;;;;;;;;;;5076010;28;20620;-69
2021/07/11 00:56:20;;;;;;;18.30;15.63;;;;;;;;;;5076295;28;20436;-69
2021/07/11 00:58:47;;;;;;;18.23;16.33;;;;;;;;;;5075923;28;20441;-69
2021/07/11 01:01:17;;;;;;;16.93;15.33;;;;;;;;;;5075571;28;20447;-69
2021/07/11 01:03:48;;;;;;;18.17;16.40;;;;;;;;;;5075548;28;20472;-70
2021/07/11 01:06:15;;;;;;;16.50;14.70;;;;;;;;;;5076537;28;20538;-69
2021/07/11 01:08:47;;;;;;;16.60;14.97;;;;;;;;;;5075419;28;20449;-70
2021/07/11 01:11:14;;;;;;;18.13;16.33;;;;;;;;;;5075491;28;20437;-70
2021/07/11 01:13:43;;;;;;;18.53;16.50;;;;;;;;;;5075941;28;20437;-69
2021/07/11 01:16:11;;;;;;;17.03;15.33;;;;;;;;;;5075657;28;20472;-70
2021/07/11 01:18:39;;;;;;;17.47;15.47;;;;;;;;;;5075232;28;20441;-70
2021/07/11 01:21:08;;;;;;;18.60;16.63;;;;;;;;;;5075085;28;20445;-70
2021/07/11 01:23:39;;;;;;;18.33;16.63;;;;;;;;;;5075706;28;20800;-70
2021/07/11 01:26:09;;;;;;;18.23;16.43;;;;;;;;;;5075382;28;20450;-70
2021/07/11 01:28:37;;;;;;;20.50;18.60;;;;;;;;;;5075454;28;20525;-70
2021/07/11 01:31:04;;;;;;;19.73;17.90;;;;;;;;;;5075951;28;20478;-70
2021/07/11 01:33:33;;;;;;;18.67;16.77;;;;;;;;;;5075643;28;20521;-70
2021/07/11 01:36:01;;;;;;;21.40;19.27;;;;;;;;;;5075030;28;20453;-70
2021/07/11 01:38:28;;;;;;;22.67;20.27;;;;;;;;;;5074871;28;20442;-70
2021/07/11 01:40:56;;;;;;;25.03;22.37;;;;;;;;;;5075693;28;20445;-70
2021/07/11 01:43:25;;;;;;;24.20;21.80;;;;;;;;;;5075160;28;20790;-70
2021/07/11 01:45:53;;;;;;;25.00;22.33;;;;;;;;;;5075832;28;20452;-70
2021/07/11 01:48:20;;;;;;;24.97;22.50;;;;;;;;;;5075005;28;20445;-70
2021/07/11 01:50:50;;;;;;;24.77;22.37;;;;;;;;;;5074168;28;20483;-69
2021/07/11 01:53:18;;;;;;;24.20;21.57;;;;;;;;;;5074260;28;20480;-69
2021/07/11 01:55:45;;;;;;;26.23;23.60;;;;;;;;;;5074565;28;20433;-69
2021/07/11 01:58:12;;;;;;;25.03;22.67;;;;;;;;;;5077490;28;20974;-69
2021/07/11 02:00:41;;;;;;;25.33;22.93;;;;;;;;;;5082690;28;20960;-69
2021/07/11 02:03:15;;;;;;;26.73;23.97;;;;;;;;;;5089827;28;20523;-69
2021/07/11 02:05:43;;;;;;;24.10;21.70;;;;;;;;;;5094886;28;20448;-71
2021/07/11 02:08:10;;;;;;;26.33;23.80;;;;;;;;;;5075095;28;20448;-71
2021/07/11 02:10:38;;;;;;;28.03;22.97;;;;;;;;;;5074522;28;20472;-70
2021/07/11 02:13:09;;;;;;;26.30;23.50;;;;;;;;;;5074462;28;20437;-71
2021/07/11 02:15:37;;;;;;;27.40;24.57;;;;;;;;;;5087096;28;20507;-71
2021/07/11 02:18:07;;;;;;;27.83;24.87;;;;;;;;;;5095231;28;20446;-71
2021/07/11 02:20:34;;;;;;;27.57;24.80;;;;;;;;;;5094319;28;20543;-71
2021/07/11 02:23:01;;;;;;;27.93;24.80;;;;;;;;;;5094698;28;20523;-71
2021/07/11 02:25:29;;;;;;;31.77;27.70;;;;;;;;;;5094302;28;20483;-71
2021/07/11 02:27:56;;;;;;;32.63;28.10;;;;;;;;;;5094178;28;20436;-71
2021/07/11 02:30:28;;;;;;;31.10;25.80;;;;;;;;;;5094123;28;20566;-71
2021/07/11 02:32:56;;;;;;;32.03;27.30;;;;;;;;;;5079708;28;20525;-71
2021/07/11 02:35:30;;;;;;;33.53;27.87;;;;;;;;;;5074064;28;20492;-71
2021/07/11 02:37:57;;;;;;;36.40;30.03;;;;;;;;;;5074153;28;20431;-71
2021/07/11 02:40:24;;;;;;;36.33;30.73;;;;;;;;;;5074021;28;20459;-71
2021/07/11 02:42:55;;;;;;;30.90;27.27;;;;;;;;;;5087137;28;20884;-70
2021/07/11 02:45:22;;;;;;;29.13;26.20;;;;;;;;;;5093962;28;20477;-70
2021/07/11 02:47:50;;;;;;;30.73;26.93;;;;;;;;;;5094206;28;20437;-69
2021/07/11 02:50:18;;;;;;;31.23;27.87;;;;;;;;;;5093988;28;20475;-69
2021/07/11 02:52:47;;;;;;;30.13;27.13;;;;;;;;;;5093983;28;20442;-69
2021/07/11 02:55:15;;;;;;;28.83;25.43;;;;;;;;;;5094598;28;20562;-69
2021/07/11 02:57:43;;;;;;;27.70;24.83;;;;;;;;;;5093707;28;20464;-69
2021/07/11 03:00:11;;;;;;;28.13;25.13;;;;;;;;;;5094207;28;20527;-69
2021/07/11 03:02:40;;;;;;;31.43;24.70;;;;;;;;;;5093752;28;20532;-69
2021/07/11 03:05:08;;;;;;;28.57;25.30;;;;;;;;;;5093689;28;20440;-69
2021/07/11 03:07:35;;;;;;;29.50;25.30;;;;;;;;;;5093771;28;20531;-69
2021/07/11 03:10:04;;;;;;;28.83;25.77;;;;;;;;;;5093976;28;20807;-70
2021/07/11 03:12:33;;;;;;;28.77;25.77;;;;;;;;;;5093622;28;20527;-70
2021/07/11 03:15:01;;;;;;;30.90;27.80;;;;;;;;;;5093466;28;20438;-70
2021/07/11 03:17:28;;;;;;;30.13;26.83;;;;;;;;;;5093716;28;20439;-70
2021/07/11 03:19:56;;;;;;;32.77;28.23;;;;;;;;;;5093942;28;20534;-70
2021/07/11 03:22:25;;;;;;;35.57;31.80;;;;;;;;;;5093618;28;20527;-70
2021/07/11 03:24:55;;;;;;;32.63;29.00;;;;;;;;;;5093563;28;20483;-70
2021/07/11 03:27:24;;;;;;;31.93;28.63;;;;;;;;;;5093761;28;20436;-70
2021/07/11 03:30:00;;;;;;;38.27;30.77;;;;;;;;;;5093395;28;20571;-70
2021/07/11 03:32:28;;;;;;;32.20;28.77;;;;;;;;;;5094211;28;20493;-70
2021/07/11 03:34:56;;;;;;;34.47;30.97;;;;;;;;;;5093318;28;20839;-70
2021/07/11 03:37:24;;;;;;;34.67;27.73;;;;;;;;;;5093376;28;20529;-70
2021/07/11 03:39:51;;;;;;;35.37;29.77;;;;;;;;;;5093641;28;20450;-70
2021/07/11 03:42:19;;;;;;;38.87;28.63;;;;;;;;;;5093410;28;20571;-70
2021/07/11 03:44:50;;;;;;;31.90;28.67;;;;;;;;;;5093041;28;20544;-70
2021/07/11 03:47:21;;;;;;;29.50;26.40;;;;;;;;;;5093039;28;20440;-70
2021/07/11 03:49:51;;;;;;;30.67;27.53;;;;;;;;;;5093565;28;20758;-70
2021/07/11 03:52:21;;;;;;;30.67;27.47;;;;;;;;;;5094030;28;20530;-70
2021/07/11 03:54:49;;;;;;;30.57;26.10;;;;;;;;;;5093310;28;20503;-71
2021/07/11 03:57:17;;;;;;;29.60;26.50;;;;;;;;;;5093144;28;20501;-71
2021/07/11 03:59:46;;;;;;;30.00;26.80;;;;;;;;;;5092844;28;20435;-71
2021/07/11 04:02:15;;;;;;;31.03;27.60;;;;;;;;;;5089488;28;20452;-71
2021/07/11 04:04:42;;;;;;;33.67;27.90;;;;;;;;;;5081771;28;20444;-70
2021/07/11 04:07:10;;;;;;;37.10;28.20;;;;;;;;;;5084159;28;20442;-70
2021/07/11 04:09:37;;;;;;;29.77;25.80;;;;;;;;;;5093177;28;20805;-70
2021/07/11 04:12:05;;;;;;;31.70;26.77;;;;;;;;;;5075845;28;20524;-70
2021/07/11 04:14:32;;;;;;;28.20;25.17;;;;;;;;;;5073550;28;20477;-70
2021/07/11 04:17:02;;;;;;;28.93;23.57;;;;;;;;;;5077023;28;20444;-70
2021/07/11 04:19:33;;;;;;;28.27;23.77;;;;;;;;;;5084622;28;20436;-70
2021/07/11 04:22:02;;;;;;;28.40;24.00;;;;;;;;;;5096518;28;20462;-70
2021/07/11 04:24:30;;;;;;;31.30;23.87;;;;;;;;;;5097482;28;20797;-70
2021/07/11 04:26:57;;;;;;;26.90;24.00;;;;;;;;;;5097144;28;20446;-70
2021/07/11 04:29:24;;;;;;;28.10;23.33;;;;;;;;;;5097343;28;20944;-70
2021/07/11 04:31:52;;;;;;;29.63;24.40;;;;;;;;;;5096416;28;21010;-69
2021/07/11 04:34:26;;;;;;;28.07;25.13;;;;;;;;;;5096246;28;20517;-70
2021/07/11 04:36:54;;;;;;;27.60;22.47;;;;;;;;;;5096497;28;20427;-69
2021/07/11 04:39:22;;;;;;;30.20;24.80;;;;;;;;;;5097427;28;20440;-71
2021/07/11 04:41:50;;;;;;;33.33;28.13;;;;;;;;;;5096826;28;20436;-70
2021/07/11 04:44:17;;;;;;;31.00;26.17;;;;;;;;;;5096531;28;20436;-70
2021/07/11 04:46:45;;;;;;;31.37;27.97;;;;;;;;;;5096175;28;20976;-68
2021/07/11 04:49:12;;;;;;;33.07;27.73;;;;;;;;;;5096802;28;20440;-68
2021/07/11 04:51:39;;;;;;;31.43;25.60;;;;;;;;;;5087286;28;20838;-69
2021/07/11 04:54:08;;;;;;;34.50;28.40;;;;;;;;;;5078057;28;20511;-71
2021/07/11 04:56:36;;;;;;;34.57;28.67;;;;;;;;;;5082376;28;20455;-69
2021/07/11 04:59:04;;;;;;;34.23;29.60;;;;;;;;;;5096054;28;20443;-69
2021/07/11 05:01:31;;;;;;;36.97;30.03;;;;;;;;;;5096155;28;20449;-69
2021/07/11 05:03:58;;;;;;;42.67;31.67;;;;;;;;;;5095826;28;20440;-69
2021/07/11 05:06:25;;;;;;;39.77;33.23;;;;;;;;;;5095996;28;20454;-69
2021/07/11 05:08:52;;;;;;;39.13;31.80;;;;;;;;;;5096756;28;20444;-69
2021/07/11 05:11:21;;;;;;;42.57;29.70;;;;;;;;;;5096034;28;20810;-68
2021/07/11 05:13:48;;;;;;;40.60;28.87;;;;;;;;;;5096354;28;20446;-69
2021/07/11 05:16:16;;;;;;;42.27;31.70;;;;;;;;;;5095951;28;20450;-68
2021/07/11 05:18:43;;;;;;;44.40;33.17;;;;;;;;;;5096053;28;20527;-69
2021/07/11 05:21:10;;;;;;;43.80;35.90;;;;;;;;;;5084303;28;20536;-69
2021/07/11 05:23:37;;;;;;;45.93;35.60;;;;;;;;;;5075496;28;20463;-69
2021/07/11 05:26:04;;;;;;;44.00;33.80;;;;;;;;;;5075126;28;20447;-70
2021/07/11 05:28:33;;;;;;;40.23;32.30;;;;;;;;;;5092136;28;20450;-69
2021/07/11 05:31:00;;;;;;;45.13;33.00;;;;;;;;;;5095443;28;20507;-69
2021/07/11 05:33:27;;;;;;;39.87;31.17;;;;;;;;;;5095322;28;20448;-69
2021/07/11 05:35:55;;;;;;;46.27;34.07;;;;;;;;;;5096019;28;20876;-69
2021/07/11 05:38:22;;;;;;;45.13;33.43;;;;;;;;;;5095500;28;20451;-69
2021/07/11 05:40:50;;;;;;;46.33;35.57;;;;;;;;;;5095388;28;20451;-69
2021/07/11 05:43:17;;;;;;;45.07;33.87;;;;;;;;;;5095532;28;20466;-69
2021/07/11 05:45:46;;;;;;;40.53;33.73;;;;;;;;;;5095369;28;20471;-68
2021/07/11 05:48:14;;;;;;;47.03;36.00;;;;;;;;;;5095419;28;20444;-69
2021/07/11 05:50:41;;;;;;;43.83;34.70;;;;;;;;;;5087291;28;20481;-69
2021/07/11 05:53:10;;;;;;;44.70;33.90;;;;;;;;;;5074529;28;20445;-70
2021/07/11 05:55:37;;;;;;;38.63;32.63;;;;;;;;;;5075422;28;20998;-69
2021/07/11 05:58:05;;;;;;;43.50;34.40;;;;;;;;;;5074285;28;20460;-72
2021/07/11 06:00:32;;;;;;;44.20;35.20;;;;;;;;;;5074666;28;20527;-69
2021/07/11 06:03:01;;;;;;;51.63;34.97;;;;;;;;;;5074342;28;20487;-69
2021/07/11 06:05:28;;;;;;;45.60;35.67;;;;;;;;;;5075259;28;20463;-69
2021/07/11 06:07:55;;;;;;;44.33;34.50;;;;;;;;;;5076794;28;20804;-69
2021/07/11 06:10:23;;;;;;;44.73;34.90;;;;;;;;;;5083471;28;20858;-69
2021/07/11 06:12:50;;;;;;;45.23;34.60;;;;;;;;;;5077321;28;20444;-69
2021/07/11 06:15:17;;;;;;;42.73;35.70;;;;;;;;;;5094507;28;20531;-69
2021/07/11 06:17:44;;;;;;;44.17;34.73;;;;;;;;;;5095081;28;20805;-69
2021/07/11 06:20:13;;;;;;;47.20;36.23;;;;;;;;;;5094692;28;20494;-69
2021/07/11 06:22:41;;;;;;;44.97;35.97;;;;;;;;;;5084728;28;20452;-69
2021/07/11 06:25:09;;;;;;;48.20;35.60;;;;;;;;;;5074140;28;20429;-69
2021/07/11 06:27:36;;;;;;;43.97;34.50;;;;;;;;;;5074505;28;20850;-69
2021/07/11 06:30:05;;;;;;;47.33;36.37;;;;;;;;;;5074248;28;20445;-69
2021/07/11 06:32:33;;;;;;;41.70;33.40;;;;;;;;;;5073778;28;20480;-69
2021/07/11 06:35:00;;;;;;;39.70;34.37;;;;;;;;;;5074608;28;20456;-69
2021/07/11 06:37:29;;;;;;;45.00;34.97;;;;;;;;;;5073261;28;20445;-69
2021/07/11 06:39:56;;;;;;;46.43;36.10;;;;;;;;;;5074128;28;20495;-69
2021/07/11 06:42:23;;;;;;;40.97;35.23;;;;;;;;;;5074391;28;20441;-69
2021/07/11 06:44:50;;;;;;;45.53;37.57;;;;;;;;;;5074059;28;20437;-69
2021/07/11 06:47:17;;;;;;;43.60;35.83;;;;;;;;;;5073464;28;20464;-69
2021/07/11 06:49:45;;;;;;;51.50;37.87;;;;;;;;;;5073928;28;20437;-69
2021/07/11 06:52:12;;;;;;;41.03;36.20;;;;;;;;;;5073781;28;20473;-69
2021/07/11 06:54:40;;;;;;;43.53;36.10;;;;;;;;;;5073937;28;20465;-70
2021/07/11 06:57:08;;;;;;;56.03;36.87;;;;;;;;;;5073855;28;20448;-69
2021/07/11 06:59:35;;;;;;;48.57;37.37;;;;;;;;;;5073794;28;20457;-69
2021/07/11 07:02:02;;;;;;;47.47;37.90;;;;;;;;;;5074147;28;20449;-69
2021/07/11 07:04:29;;;;;;;47.67;36.47;;;;;;;;;;5073668;28;20476;-69
2021/07/11 07:06:57;;;;;;;48.07;37.97;;;;;;;;;;5073985;28;20462;-69
2021/07/11 07:09:24;;;;;;;47.73;38.47;;;;;;;;;;5073543;28;20495;-69
2021/07/11 07:11:52;;;;;;;48.83;35.83;;;;;;;;;;5074254;28;20491;-69
2021/07/11 07:14:20;;;;;;;49.20;36.73;;;;;;;;;;5073531;28;20480;-69
2021/07/11 07:16:47;;;;;;;43.20;35.20;;;;;;;;;;5073496;28;20586;-69
2021/07/11 07:19:14;;;;;;;43.97;37.10;;;;;;;;;;5073620;28;20449;-69
2021/07/11 07:21:41;;;;;;;43.33;36.07;;;;;;;;;;5073364;28;20480;-68
2021/07/11 07:24:08;;;;;;;42.47;35.47;;;;;;;;;;5073859;28;20486;-69
2021/07/11 07:26:36;;;;;;;43.33;33.87;;;;;;;;;;5073116;28;20455;-69
2021/07/11 07:29:04;;;;;;;46.70;35.10;;;;;;;;;;5073622;28;20463;-69
2021/07/11 07:31:31;;;;;;;41.27;35.10;;;;;;;;;;5072751;28;20476;-72
2021/07/11 07:33:59;;;;;;;43.50;36.40;;;;;;;;;;5072648;28;20455;-69
2021/07/11 07:36:26;;;;;;;41.23;34.87;;;;;;;;;;5076709;28;20555;-70
2021/07/11 07:38:53;;;;;;;45.27;36.00;;;;;;;;;;5084265;28;20520;-69
2021/07/11 07:41:20;;;;;;;48.80;38.27;;;;;;;;;;5087468;28;20542;-70
2021/07/11 07:43:48;;;;;;;41.47;33.80;;;;;;;;;;5093402;28;20440;-71
2021/07/11 07:46:16;;;;;;;50.40;35.20;;;;;;;;;;5092212;28;20447;-71
2021/07/11 07:48:44;;;;;;;55.13;39.43;;;;;;;;;;5072797;28;20440;-70
2021/07/11 07:51:11;;;;;;;50.07;37.83;;;;;;;;;;5076375;28;20476;-71
2021/07/11 07:53:38;;;;;;;51.00;38.93;;;;;;;;;;5077155;28;20559;-71
2021/07/11 07:56:06;;;;;;;47.33;37.63;;;;;;;;;;5077366;28;20429;-70
2021/07/11 07:58:33;;;;;;;49.67;38.47;;;;;;;;;;5076808;28;20480;-70
2021/07/11 08:01:00;;;;;;;51.37;38.47;;;;;;;;;;5077151;28;20940;-71
2021/07/11 08:03:29;;;;;;;57.27;42.77;;;;;;;;;;5076932;28;20514;-70
2021/07/11 08:05:56;;;;;;;57.70;41.43;;;;;;;;;;5076997;28;20449;-70
2021/07/11 08:08:23;;;;;;;53.40;41.07;;;;;;;;;;5076802;28;20451;-70
2021/07/11 08:10:50;;;;;;;54.60;38.60;;;;;;;;;;5076504;28;20460;-70
2021/07/11 08:13:18;;;;;;;54.53;40.47;;;;;;;;;;5076382;28;21002;-70
2021/07/11 08:15:47;;;;;;;52.53;39.30;;;;;;;;;;5076894;28;20532;-70
2021/07/11 08:18:14;;;;;;;51.70;40.90;;;;;;;;;;5076602;28;20462;-70
2021/07/11 08:20:42;;;;;;;51.63;40.00;;;;;;;;;;5076680;28;20440;-70
2021/07/11 08:23:10;;;;;;;60.10;42.30;;;;;;;;;;5076648;28;20484;-70
2021/07/11 08:25:37;;;;;;;60.03;42.60;;;;;;;;;;5076448;28;20788;-71
2021/07/11 08:28:04;;;;;;;54.10;40.07;;;;;;;;;;5077085;28;20472;-70
2021/07/11 08:30:31;;;;;;;53.37;40.57;;;;;;;;;;5076436;28;20439;-70
2021/07/11 08:32:59;;;;;;;54.43;40.77;;;;;;;;;;5076280;28;20477;-70
2021/07/11 08:35:26;;;;;;;53.67;40.60;;;;;;;;;;5076066;28;20456;-70
2021/07/11 08:37:54;;;;;;;49.10;39.97;;;;;;;;;;5075931;28;20437;-70
2021/07/11 08:40:22;;;;;;;58.90;43.50;;;;;;;;;;5076488;28;20445;-69
2021/07/11 08:42:51;;;;;;;59.77;41.87;;;;;;;;;;5075938;28;20457;-69
2021/07/11 08:45:18;;;;;;;52.17;37.23;;;;;;;;;;5076393;28;20761;-69
2021/07/11 08:47:45;;;;;;;56.90;41.70;;;;;;;;;;5075997;28;20532;-69
2021/07/11 08:50:13;;;;;;;52.83;38.87;;;;;;;;;;5076606;28;20447;-69
2021/07/11 08:52:41;;;;;;;51.07;39.27;;;;;;;;;;5076085;28;20561;-69
2021/07/11 08:55:14;;;;;;;57.17;39.30;;;;;;;;;;5075659;28;20560;-70
2021/07/11 08:57:41;;;;;;;53.53;41.70;;;;;;;;;;5075812;28;20454;-69
2021/07/11 09:00:09;;;;;;;53.83;40.33;;;;;;;;;;5075346;28;20451;-69
2021/07/11 09:02:36;;;;;;;53.20;41.60;;;;;;;;;;5075518;28;20541;-69
2021/07/11 09:05:03;;;;;;;56.17;40.80;;;;;;;;;;5076239;28;20507;-70
2021/07/11 09:07:31;;;;;;;53.23;38.53;;;;;;;;;;5075643;28;20553;-69
2021/07/11 09:10:02;;;;;;;52.70;40.53;;;;;;;;;;5075487;28;20447;-69
2021/07/11 09:12:31;;;;;;;48.90;39.30;;;;;;;;;;5075663;28;20546;-69
2021/07/11 09:14:58;;;;;;;49.83;39.30;;;;;;;;;;5075613;28;20443;-69
2021/07/11 09:17:26;;;;;;;55.10;41.97;;;;;;;;;;5078680;28;20545;-69
2021/07/11 09:19:53;;;;;;;56.47;42.50;;;;;;;;;;5095535;28;20935;-69
2021/07/11 09:22:21;;;;;;;52.90;40.70;;;;;;;;;;5096022;28;20516;-69
2021/07/11 09:24:50;;;;;;;56.67;44.40;;;;;;;;;;5095660;28;20441;-68
2021/07/11 09:27:18;;;;;;;55.23;41.30;;;;;;;;;;5095450;28;20953;-69
2021/07/11 09:29:47;;;;;;;59.70;44.37;;;;;;;;;;5095138;28;20442;-69
2021/07/11 09:32:25;;;;;;;55.20;45.70;;;;;;;;;;5095446;28;20480;-69
2021/07/11 09:34:53;;;;;;;52.53;42.60;;;;;;;;;;5095531;28;20784;-69
2021/07/11 09:37:20;;;;;;;55.73;43.77;;;;;;;;;;5082281;28;20498;-69
2021/07/11 09:39:49;;;;;;;57.73;44.63;;;;;;;;;;5092668;28;20491;-69
2021/07/11 09:42:30;;;;;;;53.73;41.67;;;;;;;;;;5094918;28;21046;-69
2021/07/11 09:44:58;;;;;;;59.13;45.37;;;;;;;;;;5095277;28;20527;-69
2021/07/11 09:47:27;;;;;;;55.03;42.40;;;;;;;;;;5088024;28;20466;-69
2021/07/11 09:49:57;;;;;;;50.47;40.77;;;;;;;;;;5081282;28;20963;-69
2021/07/11 09:52:25;;;;;;;52.77;41.30;;;;;;;;;;5091499;28;20561;-70
2021/07/11 09:54:56;;;;;;;52.13;39.97;;;;;;;;;;5092734;28;20995;-70
2021/07/11 09:57:31;;;;;;;54.53;40.13;;;;;;;;;;5074581;28;20455;-69
2021/07/11 10:00:04;;;;;;;49.40;39.40;;;;;;;;;;5075493;28;20436;-68
2021/07/11 10:02:31;;;;;;;53.10;38.70;;;;;;;;;;5075083;28;20437;-68
2021/07/11 10:04:59;;;;;;;59.23;42.07;;;;;;;;;;5074731;28;20551;-69
2021/07/11 10:07:26;;;;;;;54.20;42.83;;;;;;;;;;5074332;28;20934;-69
2021/07/11 10:09:53;;;;;;;50.13;40.30;;;;;;;;;;5073960;28;20452;-73
2021/07/11 10:12:21;;;;;;;53.43;42.20;;;;;;;;;;5072958;28;20984;-73
2021/07/11 10:14:48;;;;;;;55.80;42.80;;;;;;;;;;5073961;28;20485;-72
2021/07/11 10:17:18;;;;;;;51.30;39.20;;;;;;;;;;5082551;28;20444;-72
2021/07/11 10:19:46;;;;;;;50.43;39.53;;;;;;;;;;5094556;28;20489;-71
2021/07/11 10:22:15;;;;;;;49.80;37.73;;;;;;;;;;5094138;28;20539;-71
2021/07/11 10:24:43;;;;;;;52.00;39.80;;;;;;;;;;5094548;28;20442;-71
2021/07/11 10:27:18;;;;;;;50.47;39.13;;;;;;;;;;5094925;28;20449;-71
2021/07/11 10:29:46;;;;;;;57.80;41.60;;;;;;;;;;5094167;28;20446;-72
2021/07/11 10:32:23;;;;;;;56.27;41.50;;;;;;;;;;5094480;28;20919;-71
2021/07/11 10:34:50;;;;;;;54.10;40.53;;;;;;;;;;5094264;28;20544;-71
2021/07/11 10:37:22;;;;;;;62.60;45.40;;;;;;;;;;5079616;28;20517;-72
2021/07/11 10:39:52;;;;;;;64.00;44.70;;;;;;;;;;5074269;28;20463;-71
2021/07/11 10:42:28;;;;;;;62.07;45.10;;;;;;;;;;5073826;28;20474;-71
2021/07/11 10:45:02;;;;;;;57.87;41.73;;;;;;;;;;5073718;28;20524;-71
2021/07/11 10:47:30;;;;;;;59.63;41.80;;;;;;;;;;5074290;28;20439;-71
2021/07/11 10:50:03;;;;;;;57.87;40.57;;;;;;;;;;5073529;28;20535;-71
2021/07/11 10:52:30;;;;;;;61.37;43.53;;;;;;;;;;5073868;28;20477;-71
2021/07/11 10:54:59;;;;;;;63.67;41.03;;;;;;;;;;5073960;28;20565;-71
2021/07/11 10:57:27;;;;;;;59.40;43.40;;;;;;;;;;5073994;28;20538;-71
2021/07/11 10:59:54;;;;;;;57.37;42.27;;;;;;;;;;5073349;28;20448;-71
2021/07/11 11:02:23;;;;;;;58.77;42.50;;;;;;;;;;5073698;28;20498;-71
2021/07/11 11:05:00;;;;;;;63.00;41.40;;;;;;;;;;5073462;28;20648;-71
2021/07/11 11:07:38;;;;;;;77.63;50.00;;;;;;;;;;5073390;28;21011;-70
2021/07/11 11:10:06;;;;;;;82.93;50.20;;;;;;;;;;5073421;28;20442;-71
2021/07/11 11:12:33;;;;;;;87.20;55.07;;;;;;;;;;5073323;28;20478;-70
2021/07/11 11:15:01;;;;;;;77.17;47.83;;;;;;;;;;5073468;28;20452;-71
2021/07/11 11:17:30;;;;;;;77.80;50.70;;;;;;;;;;5073293;28;20466;-70
2021/07/11 11:19:57;;;;;;;76.30;47.33;;;;;;;;;;5073479;28;20431;-70
2021/07/11 11:22:26;;;;;;;87.47;51.33;;;;;;;;;;5073137;28;20446;-71
2021/07/11 11:24:53;;;;;;;77.40;53.40;;;;;;;;;;5072957;28;20479;-71
2021/07/11 11:27:30;;;;;;;71.67;47.97;;;;;;;;;;5073412;28;20983;-71
2021/07/11 11:30:08;;;;;;;75.03;49.20;;;;;;;;;;5073353;28;20430;-71
2021/07/11 11:32:35;;;;;;;75.17;51.23;;;;;;;;;;5073301;28;20568;-71
2021/07/11 11:35:02;;;;;;;74.90;51.07;;;;;;;;;;5073328;28;20446;-71
2021/07/11 11:37:32;;;;;;;76.00;49.37;;;;;;;;;;5073414;28;20444;-71
2021/07/11 11:40:02;;;;;;;72.93;47.93;;;;;;;;;;5072950;28;20430;-71
2021/07/11 11:42:29;;;;;;;77.73;48.23;;;;;;;;;;5072700;28;20550;-71
2021/07/11 11:45:04;;;;;;;74.40;49.93;;;;;;;;;;5072745;28;20446;-71
2021/07/11 11:47:31;;;;;;;71.70;44.70;;;;;;;;;;5073331;28;20443;-71
2021/07/11 11:49:58;;;;;;;83.20;48.97;;;;;;;;;;5073329;28;20441;-67
2021/07/11 11:52:26;;;;;;;72.07;48.03;;;;;;;;;;5072715;28;20541;-71
2021/07/11 11:55:04;;;;;;;76.93;48.37;;;;;;;;;;5072862;28;20509;-71
2021/07/11 11:57:32;;;;;;;77.83;50.27;;;;;;;;;;5072832;28;20428;-74
2021/07/11 12:00:00;;;;;;;73.40;49.80;;;;;;;;;;5072730;28;21007;-71
2021/07/11 12:02:27;;;;;;;73.10;47.93;;;;;;;;;;5077529;28;20814;-69
2021/07/11 12:04:54;;;;;;;79.87;47.20;;;;;;;;;;5083967;28;20444;-70
2021/07/11 12:07:23;;;;;;;71.13;44.67;;;;;;;;;;5080216;28;20520;-70
2021/07/11 12:09:50;;;;;;;63.60;45.20;;;;;;;;;;5073783;28;20537;-70
2021/07/11 12:12:19;;;;;;;75.27;49.73;;;;;;;;;;5081785;28;20563;-70
2021/07/11 12:14:46;;;;;;;75.90;50.13;;;;;;;;;;5073188;28;20440;-70
2021/07/11 12:17:14;;;;;;;69.27;44.73;;;;;;;;;;5093195;28;20876;-70
2021/07/11 12:19:45;;;;;;;62.57;41.30;;;;;;;;;;5092834;28;20550;-70
2021/07/11 12:22:16;;;;;;;67.13;44.50;;;;;;;;;;5092799;28;20522;-70
2021/07/11 12:24:43;;;;;;;62.57;41.50;;;;;;;;;;5093632;28;20868;-70
2021/07/11 12:27:10;;;;;;;62.30;41.50;;;;;;;;;;5083155;28;20487;-70
2021/07/11 12:29:39;;;;;;;58.40;42.07;;;;;;;;;;5073403;28;20437;-69
2021/07/11 12:32:08;;;;;;;48.03;34.20;;;;;;;;;;5072500;28;20498;-69
2021/07/11 12:34:35;;;;;;;58.63;39.47;;;;;;;;;;5072462;28;20485;-70
2021/07/11 12:37:05;;;;;;;52.20;37.73;;;;;;;;;;5075651;28;20457;-69
2021/07/11 12:39:33;;;;;;;49.13;34.03;;;;;;;;;;5075990;28;20440;-70
2021/07/11 12:42:00;;;;;;;51.10;38.87;;;;;;;;;;5075826;28;20440;-69
2021/07/11 12:44:35;;;;;;;48.83;36.37;;;;;;;;;;5075349;28;20961;-70
2021/07/11 12:47:08;;;;;;;47.70;35.30;;;;;;;;;;5086819;28;21006;-70
2021/07/11 12:49:35;;;;;;;50.60;37.30;;;;;;;;;;5096720;28;20447;-70
2021/07/11 12:52:08;;;;;;;48.87;35.67;;;;;;;;;;5096194;28;20540;-70
2021/07/11 12:54:35;;;;;;;44.47;33.93;;;;;;;;;;5096514;28;20541;-70
2021/07/11 12:57:03;;;;;;;42.83;33.80;;;;;;;;;;5096303;28;20555;-70
2021/07/11 12:59:32;;;;;;;41.60;31.43;;;;;;;;;;5096261;28;20473;-69
2021/07/11 13:02:06;;;;;;;41.67;32.37;;;;;;;;;;5096104;28;20504;-70
2021/07/11 13:04:35;;;;;;;45.97;32.07;;;;;;;;;;5096128;28;20536;-70
2021/07/11 13:07:03;;;;;;;35.17;29.50;;;;;;;;;;5096069;28;20503;-70
2021/07/11 13:09:31;;;;;;;40.80;30.43;;;;;;;;;;5095582;28;20523;-74
2021/07/11 13:11:58;;;;;;;38.50;28.93;;;;;;;;;;5075940;28;20442;-73
2021/07/11 13:14:25;;;;;;;36.97;29.57;;;;;;;;;;5075929;28;20568;-74
2021/07/11 13:16:52;;;;;;;35.03;29.30;;;;;;;;;;5075884;28;20542;-74
2021/07/11 13:19:20;;;;;;;33.23;27.90;;;;;;;;;;5075827;28;20442;-73
2021/07/11 13:21:48;;;;;;;32.50;26.70;;;;;;;;;;5075819;28;20472;-73
2021/07/11 13:24:15;;;;;;;32.40;28.90;;;;;;;;;;5076277;28;20517;-73
2021/07/11 13:26:43;;;;;;;28.00;24.30;;;;;;;;;;5075332;28;20444;-73
2021/07/11 13:29:10;;;;;;;26.70;23.90;;;;;;;;;;5075457;28;20447;-73
2021/07/11 13:31:37;;;;;;;27.53;24.57;;;;;;;;;;5075211;28;20468;-73
2021/07/11 13:34:05;;;;;;;26.80;22.30;;;;;;;;;;5075031;28;20976;-74
2021/07/11 13:36:32;;;;;;;23.10;19.67;;;;;;;;;;5075231;28;20477;-73
2021/07/11 13:39:02;;;;;;;24.50;21.83;;;;;;;;;;5075598;28;20926;-73
2021/07/11 13:41:29;;;;;;;22.83;20.60;;;;;;;;;;5075232;28;20512;-73
2021/07/11 13:43:57;;;;;;;22.73;18.97;;;;;;;;;;5075339;28;20448;-73
2021/07/11 13:46:24;;;;;;;19.87;17.97;;;;;;;;;;5074437;28;20941;-73
2021/07/11 13:48:51;;;;;;;19.93;18.00;;;;;;;;;;5073956;28;20532;-74
2021/07/11 13:51:18;;;;;;;17.93;16.10;;;;;;;;;;5075203;28;20925;-75
2021/07/11 13:53:46;;;;;;;20.53;17.73;;;;;;;;;;5074677;28;20502;-72
2021/07/11 13:56:14;;;;;;;17.97;16.07;;;;;;;;;;5075264;28;20446;-72
2021/07/11 13:58:42;;;;;;;18.57;16.70;;;;;;;;;;5074918;28;20454;-72
2021/07/11 14:01:09;;;;;;;19.03;17.03;;;;;;;;;;5074599;28;20422;-73
2021/07/11 14:03:36;;;;;;;20.00;18.00;;;;;;;;;;5074994;28;20558;-74
2021/07/11 14:06:03;;;;;;;19.20;17.27;;;;;;;;;;5074424;28;20450;-73
2021/07/11 14:08:31;;;;;;;19.37;17.33;;;;;;;;;;5074739;28;20513;-73
2021/07/11 14:10:58;;;;;;;19.30;17.33;;;;;;;;;;5074187;28;20880;-73
2021/07/11 14:13:27;;;;;;;16.93;15.33;;;;;;;;;;5074327;28;20478;-72
2021/07/11 14:15:54;;;;;;;19.73;17.63;;;;;;;;;;5074777;28;20450;-73
2021/07/11 14:18:22;;;;;;;17.37;15.67;;;;;;;;;;5074396;28;20939;-74
2021/07/11 14:20:50;;;;;;;17.63;15.07;;;;;;;;;;5074904;28;20525;-73
2021/07/11 14:23:17;;;;;;;19.33;17.43;;;;;;;;;;5074705;28;20514;-74